Time;durP1;ratioP1;P1;durP2;ratioP2;P2;SDS_P1;SDS_P2;PMS_P1;PMS_P2;Temp;Humidity;BMP_temperature;BMP_pressure;BME280_temperature;BME280_humidity;BME280_pressure;Samples;Min_cycle;Max_cycle;Signal;HPM_P1;HPM_P2
2021/08/29 00:00:53;;;;;;;3.72;1.80;;;15.70;99.90;;;;;;5052685;28;20029;-88
2021/08/29 00:03:25;;;;;;;3.25;1.85;;;15.70;99.90;;;;;;5053134;28;20025;-88
2021/08/29 00:05:56;;;;;;;5.07;1.70;;;15.70;99.90;;;;;;5053406;28;20115;-90
2021/08/29 00:08:22;;;;;;;4.32;2.08;;;15.70;99.90;;;;;;5053220;28;20029;-88
2021/08/29 00:10:48;;;;;;;4.20;1.55;;;15.70;99.90;;;;;;5052190;28;20028;-89
2021/08/29 00:13:14;;;;;;;4.10;1.70;;;15.70;99.90;;;;;;5053015;28;20123;-89
2021/08/29 00:15:43;;;;;;;3.97;1.80;;;15.70;99.90;;;;;;5070691;28;20104;-88
2021/08/29 00:18:09;;;;;;;3.88;1.77;;;15.70;99.90;;;;;;5073875;28;20047;-89
2021/08/29 00:20:35;;;;;;;4.55;1.85;;;15.70;99.90;;;;;;5056150;28;20020;-89
2021/08/29 00:23:02;;;;;;;5.85;2.50;;;15.70;99.90;;;;;;5056652;28;20377;-88
2021/08/29 00:25:28;;;;;;;4.20;1.90;;;15.70;99.90;;;;;;5074742;28;20024;-88
2021/08/29 00:27:55;;;;;;;5.32;1.77;;;15.70;99.90;;;;;;5058274;28;20024;-90
2021/08/29 00:30:21;;;;;;;4.28;2.10;;;15.70;99.90;;;;;;5058042;28;20107;-89
2021/08/29 00:32:47;;;;;;;3.28;1.73;;;15.70;99.90;;;;;;5054616;28;20048;-89
2021/08/29 00:35:13;;;;;;;3.53;1.83;;;15.70;99.90;;;;;;5054740;28;20025;-89
2021/08/29 00:37:38;;;;;;;3.95;2.00;;;15.80;99.90;;;;;;5054703;28;20117;-89
2021/08/29 00:40:05;;;;;;;5.10;2.20;;;15.80;99.90;;;;;;5054405;28;20156;-89
2021/08/29 00:42:32;;;;;;;5.38;2.28;;;15.80;99.90;;;;;;5055750;28;20033;-88
2021/08/29 00:44:58;;;;;;;6.35;2.22;;;15.80;99.90;;;;;;5054342;28;20115;-89
2021/08/29 00:47:23;;;;;;;6.93;2.08;;;15.80;99.90;;;;;;5054606;28;20021;-89
2021/08/29 00:49:50;;;;;;;4.07;2.00;;;15.80;99.90;;;;;;5054419;28;20032;-89
2021/08/29 00:52:15;;;;;;;5.05;2.28;;;15.80;99.90;;;;;;5054486;28;20021;-89
2021/08/29 00:54:41;;;;;;;6.10;2.70;;;15.80;99.90;;;;;;5054570;28;20131;-89
2021/08/29 00:57:09;;;;;;;6.97;2.20;;;15.80;99.90;;;;;;5054285;28;20025;-90
2021/08/29 00:59:42;;;;;;;3.92;1.42;;;15.80;99.90;;;;;;5053915;28;20025;-91
2021/08/29 01:02:12;;;;;;;4.75;2.42;;;15.80;99.90;;;;;;5049483;28;20029;-90
2021/08/29 01:05:03;;;;;;;4.43;2.13;;;15.80;99.90;;;;;;5055133;28;20017;-89
2021/08/29 01:07:49;;;;;;;3.60;1.67;;;15.80;99.90;;;;;;5051355;28;20024;-90
2021/08/29 01:10:20;;;;;;;4.53;1.90;;;15.80;99.90;;;;;;5083294;28;20048;-89
2021/08/29 01:12:53;;;;;;;5.35;2.22;;;15.80;99.90;;;;;;5053446;28;20021;-90
2021/08/29 01:15:23;;;;;;;6.10;2.72;;;15.80;99.90;;;;;;5053752;28;20017;-90
2021/08/29 01:17:50;;;;;;;3.80;2.10;;;15.80;99.90;;;;;;5053074;28;20040;-88
2021/08/29 01:20:21;;;;;;;6.22;2.65;;;15.80;99.90;;;;;;5050907;28;20029;-89
2021/08/29 01:22:49;;;;;;;6.53;2.55;;;15.80;99.90;;;;;;5053375;28;20032;-89
2021/08/29 01:25:25;;;;;;;5.72;2.78;;;15.80;99.90;;;;;;5053606;28;20025;-88
2021/08/29 01:28:14;;;;;;;8.20;2.30;;;15.80;99.90;;;;;;5049264;28;20044;-90
2021/08/29 01:30:45;;;;;;;5.05;1.92;;;15.80;99.90;;;;;;5085481;28;20532;-91
2021/08/29 01:33:13;;;;;;;4.35;2.15;;;15.80;99.90;;;;;;5089358;28;20035;-89
2021/08/29 01:35:41;;;;;;;4.70;2.45;;;15.80;99.90;;;;;;5056648;28;20021;-89
2021/08/29 01:38:08;;;;;;;6.25;2.30;;;15.90;99.90;;;;;;5054223;28;20063;-90
2021/08/29 01:40:35;;;;;;;4.30;2.03;;;15.90;99.90;;;;;;5053829;28;20024;-90
2021/08/29 01:43:02;;;;;;;5.35;2.28;;;15.80;99.90;;;;;;5088740;28;20430;-88
2021/08/29 01:45:29;;;;;;;9.57;2.10;;;15.80;99.90;;;;;;5056515;28;20027;-89
2021/08/29 01:47:59;;;;;;;6.15;1.90;;;15.90;99.90;;;;;;5053212;28;20488;-89
2021/08/29 01:50:26;;;;;;;4.65;2.15;;;15.90;99.90;;;;;;5055218;28;20048;-88
2021/08/29 01:52:54;;;;;;;4.95;2.10;;;15.90;99.90;;;;;;5073572;28;20037;-89
2021/08/29 01:55:19;;;;;;;6.70;2.50;;;15.90;99.90;;;;;;5055892;28;20032;-89
2021/08/29 01:57:45;;;;;;;6.05;2.40;;;15.90;99.90;;;;;;5088940;28;20400;-89
2021/08/29 02:00:11;;;;;;;6.45;2.40;;;15.90;99.90;;;;;;5088613;28;20036;-89
2021/08/29 02:02:40;;;;;;;6.75;2.55;;;15.90;99.90;;;;;;5054926;28;20430;-89
2021/08/29 02:05:06;;;;;;;6.20;3.03;;;15.90;99.90;;;;;;5087499;28;20032;-89
2021/08/29 02:07:36;;;;;;;6.45;2.55;;;15.90;99.90;;;;;;5073500;28;20099;-89
2021/08/29 02:10:11;;;;;;;6.80;2.90;;;15.90;99.90;;;;;;5054891;28;20119;-88
2021/08/29 02:12:59;;;;;;;6.60;2.35;;;16.00;99.90;;;;;;5088984;28;20020;-87
2021/08/29 02:15:31;;;;;;;4.28;1.98;;;16.00;99.90;;;;;;5055857;28;20063;-88
2021/08/29 02:18:02;;;;;;;6.00;2.40;;;16.00;99.90;;;;;;5055551;28;20040;-89
2021/08/29 02:20:29;;;;;;;5.72;2.40;;;15.90;99.90;;;;;;5074065;28;20415;-89
2021/08/29 02:22:57;;;;;;;5.70;2.47;;;15.90;99.90;;;;;;5056569;28;20031;-89
2021/08/29 02:25:22;;;;;;;4.20;2.13;;;16.00;99.90;;;;;;5056690;28;20396;-89
2021/08/29 02:27:49;;;;;;;7.13;2.97;;;16.00;99.90;;;;;;5056285;28;20021;-88
2021/08/29 02:30:16;;;;;;;6.38;2.90;;;16.00;99.90;;;;;;5056743;28;20046;-88
2021/08/29 02:32:44;;;;;;;5.95;3.05;;;15.90;99.90;;;;;;5056229;28;20048;-88
2021/08/29 02:35:11;;;;;;;6.47;2.75;;;16.00;99.90;;;;;;5089867;28;20085;-88
2021/08/29 02:37:38;;;;;;;7.18;3.28;;;15.90;99.90;;;;;;5055338;28;20020;-89
2021/08/29 02:40:09;;;;;;;8.85;5.07;;;15.90;99.90;;;;;;5055593;28;20027;-88
2021/08/29 02:42:34;;;;;;;7.78;4.72;;;15.90;99.90;;;;;;5055922;28;20476;-88
2021/08/29 02:45:04;;;;;;;7.72;5.53;;;15.90;99.90;;;;;;5055980;28;20020;-88
2021/08/29 02:47:30;;;;;;;9.65;5.70;;;15.90;99.90;;;;;;5055774;28;20075;-89
2021/08/29 02:49:57;;;;;;;9.40;5.97;;;15.90;99.90;;;;;;5074063;28;20037;-88
2021/08/29 02:52:24;;;;;;;11.35;6.72;;;15.90;99.90;;;;;;5056269;28;20077;-88
2021/08/29 02:54:50;;;;;;;9.52;6.72;;;15.90;99.90;;;;;;5055968;28;20035;-88
2021/08/29 02:57:20;;;;;;;10.25;6.07;;;15.90;99.90;;;;;;5055956;28;20484;-90
2021/08/29 02:59:46;;;;;;;13.35;7.15;;;16.00;99.90;;;;;;5073674;28;20170;-89
2021/08/29 03:02:12;;;;;;;13.45;7.40;;;16.00;99.90;;;;;;5055694;28;20028;-91
2021/08/29 03:04:39;;;;;;;9.95;7.00;;;15.90;99.90;;;;;;5056040;28;20375;-89
2021/08/29 03:07:06;;;;;;;11.50;7.50;;;16.00;99.90;;;;;;5055782;28;20023;-88
2021/08/29 03:09:35;;;;;;;10.75;6.72;;;16.00;99.90;;;;;;5055435;28;20119;-89
2021/08/29 03:12:09;;;;;;;11.60;7.35;;;16.00;99.90;;;;;;5056081;28;20028;-89
2021/08/29 03:14:37;;;;;;;12.60;7.68;;;16.00;99.90;;;;;;5055633;28;20025;-90
2021/08/29 03:17:04;;;;;;;12.95;8.00;;;16.00;99.90;;;;;;5056005;28;20086;-90
2021/08/29 03:19:31;;;;;;;10.57;6.63;;;16.00;99.90;;;;;;5055299;28;20421;-90
2021/08/29 03:21:59;;;;;;;10.95;6.88;;;16.00;99.90;;;;;;5073668;28;20360;-89
2021/08/29 03:24:25;;;;;;;10.25;6.07;;;16.00;99.90;;;;;;5073814;28;20484;-89
2021/08/29 03:26:51;;;;;;;10.32;5.82;;;16.00;99.90;;;;;;5055821;28;20032;-89
2021/08/29 03:29:18;;;;;;;8.52;5.45;;;16.00;99.90;;;;;;5055359;28;20039;-88
2021/08/29 03:31:45;;;;;;;8.93;5.00;;;16.00;99.90;;;;;;5051939;28;20056;-88
2021/08/29 03:34:16;;;;;;;10.40;4.90;;;16.00;99.90;;;;;;5052241;28;20025;-89
2021/08/29 03:36:44;;;;;;;8.27;4.45;;;15.90;99.90;;;;;;5052464;28;20064;-90
2021/08/29 03:39:11;;;;;;;8.15;4.50;;;15.90;99.90;;;;;;5053203;28;20108;-90
2021/08/29 03:41:42;;;;;;;7.85;4.40;;;15.90;99.90;;;;;;5053425;28;20087;-89
2021/08/29 03:44:11;;;;;;;5.55;3.55;;;15.90;99.90;;;;;;5052485;28;20059;-90
2021/08/29 03:46:36;;;;;;;7.28;4.07;;;15.80;99.90;;;;;;5051898;28;20036;-89
2021/08/29 03:49:04;;;;;;;5.63;2.85;;;15.80;99.90;;;;;;5052007;28;20111;-89
2021/08/29 03:51:32;;;;;;;6.65;3.15;;;15.80;99.90;;;;;;5053362;28;20039;-89
2021/08/29 03:53:59;;;;;;;5.25;2.60;;;15.80;99.90;;;;;;5056208;28;20025;-89
2021/08/29 03:56:29;;;;;;;5.07;2.88;;;15.70;99.90;;;;;;5056080;28;20035;-89
2021/08/29 03:58:57;;;;;;;6.47;3.17;;;15.80;99.90;;;;;;5056231;28;20461;-89
2021/08/29 04:01:25;;;;;;;6.55;3.10;;;15.80;99.90;;;;;;5056592;28;20029;-89
2021/08/29 04:03:51;;;;;;;5.45;2.88;;;15.80;99.90;;;;;;5056106;28;20029;-89
2021/08/29 04:06:17;;;;;;;5.85;2.53;;;15.80;99.90;;;;;;5056083;28;20452;-89
2021/08/29 04:08:51;;;;;;;5.68;2.63;;;15.80;99.90;;;;;;5056487;28;20052;-89
2021/08/29 04:11:22;;;;;;;4.78;2.70;;;15.80;99.90;;;;;;5057140;28;20136;-89
2021/08/29 04:13:50;;;;;;;6.00;2.50;;;15.80;99.90;;;;;;5055445;28;20060;-89
2021/08/29 04:16:17;;;;;;;5.97;2.40;;;15.80;99.90;;;;;;5056319;28;20436;-89
2021/08/29 04:18:45;;;;;;;4.35;2.08;;;15.80;99.90;;;;;;5056485;28;20465;-90
2021/08/29 04:21:16;;;;;;;5.85;2.60;;;15.90;99.90;;;;;;5054994;28;20087;-89
2021/08/29 04:23:42;;;;;;;5.68;3.00;;;15.90;99.90;;;;;;5054712;28;20125;-89
2021/08/29 04:26:09;;;;;;;4.97;2.40;;;15.90;99.90;;;;;;5054771;28;20487;-89
2021/08/29 04:28:37;;;;;;;6.97;2.72;;;15.80;99.90;;;;;;5055344;28;20029;-89
2021/08/29 04:31:09;;;;;;;5.78;2.42;;;15.90;99.90;;;;;;5054533;28;20404;-89
2021/08/29 04:33:34;;;;;;;5.55;2.33;;;15.90;99.90;;;;;;5055191;28;20021;-90
2021/08/29 04:36:00;;;;;;;5.40;2.22;;;15.90;99.90;;;;;;5055031;28;20512;-89
2021/08/29 04:38:27;;;;;;;4.72;2.05;;;15.90;99.90;;;;;;5054984;28;20025;-89
2021/08/29 04:40:53;;;;;;;6.60;2.72;;;15.80;99.90;;;;;;5054938;28;20100;-90
2021/08/29 04:43:19;;;;;;;5.57;2.38;;;15.90;99.90;;;;;;5055426;28;20032;-89
2021/08/29 04:45:45;;;;;;;9.05;2.40;;;15.90;99.90;;;;;;5055192;28;20017;-90
2021/08/29 04:48:11;;;;;;;5.40;2.17;;;15.90;99.90;;;;;;5054955;28;20025;-89
2021/08/29 04:50:36;;;;;;;6.38;2.42;;;15.90;99.90;;;;;;5055159;28;20029;-89
2021/08/29 04:53:02;;;;;;;4.85;2.10;;;15.90;99.90;;;;;;5054281;28;20124;-89
2021/08/29 04:55:30;;;;;;;7.70;2.45;;;15.90;99.90;;;;;;5055288;28;20035;-89
2021/08/29 04:57:56;;;;;;;4.55;1.80;;;15.90;99.90;;;;;;5055206;28;20021;-89
2021/08/29 05:00:22;;;;;;;7.05;2.25;;;16.00;99.90;;;;;;5054970;28;20469;-89
2021/08/29 05:02:47;;;;;;;5.00;2.42;;;16.00;99.90;;;;;;5054991;28;20022;-88
2021/08/29 05:05:14;;;;;;;3.72;1.95;;;16.00;99.90;;;;;;5054848;28;20028;-88
2021/08/29 05:07:39;;;;;;;7.45;1.77;;;16.00;99.90;;;;;;5056049;28;20056;-89
2021/08/29 05:10:06;;;;;;;5.07;1.95;;;16.00;99.90;;;;;;5038266;28;20072;-90
2021/08/29 05:12:32;;;;;;;6.88;2.45;;;16.00;99.90;;;;;;5054446;28;20075;-89
2021/08/29 05:14:58;;;;;;;6.78;2.50;;;16.10;99.90;;;;;;5055018;28;20029;-89
2021/08/29 05:17:24;;;;;;;6.88;2.25;;;16.10;99.90;;;;;;5055530;28;20033;-89
2021/08/29 05:19:50;;;;;;;5.35;1.92;;;16.10;99.90;;;;;;5054825;28;20492;-89
2021/08/29 05:22:16;;;;;;;8.90;2.88;;;16.10;99.90;;;;;;5054745;28;20484;-89
2021/08/29 05:24:41;;;;;;;6.68;2.00;;;16.10;99.90;;;;;;5055683;28;20041;-89
2021/08/29 05:27:07;;;;;;;9.32;2.50;;;16.10;99.90;;;;;;5054662;28;20325;-88
2021/08/29 05:29:33;;;;;;;7.65;2.30;;;16.20;99.90;;;;;;5054235;28;20159;-87
2021/08/29 05:32:00;;;;;;;5.32;2.30;;;16.20;99.90;;;;;;5054487;28;20045;-89
2021/08/29 05:34:26;;;;;;;7.32;2.70;;;16.30;99.90;;;;;;5054502;28;20055;-89
2021/08/29 05:36:52;;;;;;;9.25;3.03;;;16.30;99.90;;;;;;5054465;28;20469;-90
2021/08/29 05:39:18;;;;;;;7.13;2.42;;;16.30;99.90;;;;;;5055282;28;20037;-88
2021/08/29 05:41:44;;;;;;;8.60;2.40;;;16.30;99.90;;;;;;5054892;28;20044;-89
2021/08/29 05:44:10;;;;;;;7.00;2.35;;;16.30;99.90;;;;;;5054311;28;20032;-88
2021/08/29 05:46:36;;;;;;;6.00;2.35;;;16.30;99.90;;;;;;5055613;28;20029;-89
2021/08/29 05:49:02;;;;;;;8.75;2.40;;;16.40;99.90;;;;;;5054992;28;20036;-88
2021/08/29 05:51:31;;;;;;;5.80;2.25;;;16.40;99.90;;;;;;5053668;28;20029;-89
2021/08/29 05:53:57;;;;;;;6.28;2.30;;;16.40;99.90;;;;;;5053479;28;20119;-88
2021/08/29 05:56:23;;;;;;;9.02;2.17;;;16.40;99.90;;;;;;5053841;28;20017;-89
2021/08/29 05:58:49;;;;;;;7.05;2.70;;;16.40;99.90;;;;;;5053940;28;20377;-88
2021/08/29 06:01:15;;;;;;;6.03;2.80;;;16.40;99.90;;;;;;5053613;28;20066;-89
2021/08/29 06:03:42;;;;;;;7.88;2.63;;;16.40;99.90;;;;;;5053765;28;20469;-88
2021/08/29 06:06:08;;;;;;;9.55;2.85;;;16.50;99.90;;;;;;5053726;28;20372;-87
2021/08/29 06:08:34;;;;;;;7.50;2.35;;;16.50;99.90;;;;;;5053165;28;20035;-88
2021/08/29 06:11:00;;;;;;;8.73;2.78;;;16.50;99.90;;;;;;5054123;28;20439;-90
2021/08/29 06:13:26;;;;;;;11.57;3.33;;;16.50;99.90;;;;;;5053153;28;20058;-90
2021/08/29 06:15:52;;;;;;;11.38;3.38;;;16.50;99.90;;;;;;5053112;28;20035;-89
2021/08/29 06:18:18;;;;;;;8.07;2.65;;;16.40;99.90;;;;;;5053484;28;20037;-88
2021/08/29 06:20:44;;;;;;;7.72;2.92;;;16.50;99.90;;;;;;5052701;28;20466;-88
2021/08/29 06:23:11;;;;;;;7.15;2.47;;;16.50;99.90;;;;;;5053749;28;20027;-89
2021/08/29 06:25:37;;;;;;;7.32;2.50;;;16.60;99.90;;;;;;5054963;28;20036;-89
2021/08/29 06:28:04;;;;;;;7.63;2.42;;;16.50;99.90;;;;;;5054457;28;20025;-88
2021/08/29 06:30:30;;;;;;;6.15;2.45;;;16.60;99.90;;;;;;5053423;28;20480;-88
2021/08/29 06:32:56;;;;;;;8.45;2.63;;;16.60;99.90;;;;;;5056859;28;20024;-88
2021/08/29 06:35:22;;;;;;;8.50;2.75;;;16.60;99.90;;;;;;5056572;28;20166;-88
2021/08/29 06:37:48;;;;;;;6.03;2.13;;;16.60;99.90;;;;;;5056883;28;20487;-89
2021/08/29 06:40:14;;;;;;;10.10;2.78;;;16.70;99.90;;;;;;5056453;28;20028;-88
2021/08/29 06:42:41;;;;;;;6.03;2.30;;;16.60;99.90;;;;;;5056266;28;20396;-88
2021/08/29 06:45:08;;;;;;;8.95;2.97;;;16.70;99.90;;;;;;5056533;28;20482;-88
2021/08/29 06:47:34;;;;;;;8.02;2.33;;;16.70;99.90;;;;;;5055731;28;20025;-88
2021/08/29 06:50:00;;;;;;;8.35;2.53;;;16.70;99.90;;;;;;5056379;28;20446;-88
2021/08/29 06:52:26;;;;;;;10.27;2.78;;;16.70;99.90;;;;;;5056152;28;20016;-89
2021/08/29 06:54:52;;;;;;;11.82;2.63;;;16.80;99.90;;;;;;5056490;28;20021;-88
2021/08/29 06:57:18;;;;;;;5.47;2.13;;;16.80;99.90;;;;;;5056180;28;20063;-89
2021/08/29 06:59:44;;;;;;;9.68;2.50;;;16.80;99.90;;;;;;5074043;28;20409;-88
2021/08/29 07:02:10;;;;;;;6.43;2.17;;;16.90;99.90;;;;;;5073929;28;20078;-88
2021/08/29 07:04:36;;;;;;;7.30;2.45;;;16.90;99.90;;;;;;5056410;28;20032;-89
2021/08/29 07:07:02;;;;;;;9.95;2.30;;;17.00;99.90;;;;;;5056118;28;20029;-88
2021/08/29 07:09:30;;;;;;;5.55;2.28;;;17.00;99.90;;;;;;5056154;28;20078;-88
2021/08/29 07:11:56;;;;;;;10.80;2.90;;;17.10;99.90;;;;;;5074154;28;20020;-88
2021/08/29 07:14:23;;;;;;;7.80;2.53;;;17.10;99.90;;;;;;5056249;28;20032;-88
2021/08/29 07:16:50;;;;;;;6.05;1.98;;;17.10;99.90;;;;;;5055821;28;20033;-88
2021/08/29 07:19:16;;;;;;;8.07;2.58;;;17.10;99.90;;;;;;5055833;28;20072;-89
2021/08/29 07:21:41;;;;;;;6.95;2.33;;;17.10;99.90;;;;;;5055565;28;20028;-88
2021/08/29 07:24:08;;;;;;;7.47;2.42;;;17.10;99.90;;;;;;5055997;28;20024;-89
2021/08/29 07:26:37;;;;;;;6.57;2.40;;;17.00;99.90;;;;;;5057571;28;20017;-89
2021/08/29 07:29:06;;;;;;;8.98;2.72;;;17.00;99.90;;;;;;5060345;28;20021;-89
2021/08/29 07:31:32;;;;;;;7.60;2.22;;;17.10;99.90;;;;;;5055909;28;20061;-89
2021/08/29 07:33:58;;;;;;;8.05;2.40;;;17.00;99.90;;;;;;5056858;28;20029;-90
2021/08/29 07:36:25;;;;;;;6.60;2.22;;;17.00;99.90;;;;;;5056486;28;20035;-88
2021/08/29 07:38:50;;;;;;;7.38;2.53;;;17.00;99.90;;;;;;5057458;28;20021;-88
2021/08/29 07:41:16;;;;;;;9.02;2.83;;;17.00;99.90;;;;;;5056344;28;20025;-89
2021/08/29 07:43:42;;;;;;;6.57;2.58;;;17.00;99.90;;;;;;5056515;28;20032;-89
2021/08/29 07:46:08;;;;;;;10.50;2.63;;;16.90;99.90;;;;;;5056483;28;20037;-89
2021/08/29 07:48:37;;;;;;;6.30;2.20;;;16.90;99.90;;;;;;5056530;28;20033;-89
2021/08/29 07:51:04;;;;;;;7.53;2.20;;;16.80;99.90;;;;;;5056304;28;20024;-90
2021/08/29 07:53:32;;;;;;;7.68;2.45;;;16.80;99.90;;;;;;5056425;28;20033;-90
2021/08/29 07:55:58;;;;;;;4.80;2.10;;;16.90;99.90;;;;;;5055928;28;20029;-89
2021/08/29 07:58:32;;;;;;;5.90;2.08;;;16.90;99.90;;;;;;5057413;28;20029;-89
2021/08/29 08:01:01;;;;;;;8.10;2.78;;;17.00;99.90;;;;;;5055833;28;20025;-89
2021/08/29 08:03:37;;;;;;;5.95;2.40;;;17.00;99.90;;;;;;5056995;28;20025;-89
2021/08/29 08:06:12;;;;;;;5.78;2.10;;;17.00;99.90;;;;;;5057240;28;20024;-89
2021/08/29 08:08:41;;;;;;;8.25;2.70;;;17.00;99.90;;;;;;5056038;28;20033;-89
2021/08/29 08:11:09;;;;;;;8.93;2.10;;;16.90;99.90;;;;;;5055167;28;20096;-88
2021/08/29 08:13:38;;;;;;;6.93;2.47;;;16.90;99.90;;;;;;5054696;28;20380;-88
2021/08/29 08:16:07;;;;;;;10.02;2.75;;;16.90;99.90;;;;;;5056578;28;20025;-86
2021/08/29 08:18:33;;;;;;;8.30;3.13;;;16.90;99.90;;;;;;5054644;28;20037;-88
2021/08/29 08:21:02;;;;;;;8.75;2.40;;;16.80;99.90;;;;;;5054834;28;20087;-87
2021/08/29 08:23:28;;;;;;;8.63;2.47;;;16.80;99.90;;;;;;5055747;28;20103;-87
2021/08/29 08:25:58;;;;;;;6.72;2.63;;;16.80;99.90;;;;;;5055433;28;20459;-87
2021/08/29 08:28:24;;;;;;;9.25;2.40;;;16.80;99.90;;;;;;5054842;28;20029;-86
2021/08/29 08:30:51;;;;;;;7.22;2.97;;;16.80;99.90;;;;;;5057118;28;20060;-86
2021/08/29 08:33:20;;;;;;;7.10;2.53;;;16.70;99.90;;;;;;5056990;28;20031;-87
2021/08/29 08:35:45;;;;;;;7.20;2.33;;;16.80;99.90;;;;;;5056140;28;20469;-87
2021/08/29 08:38:12;;;;;;;7.38;1.95;;;16.70;99.90;;;;;;5074154;28;20060;-87
2021/08/29 08:40:42;;;;;;;6.05;2.47;;;16.70;99.90;;;;;;5055548;28;20054;-87
2021/08/29 08:43:10;;;;;;;6.90;2.50;;;16.70;99.90;;;;;;5056273;28;20495;-88
2021/08/29 08:45:38;;;;;;;8.27;2.67;;;16.70;99.90;;;;;;5056361;28;20029;-88
2021/08/29 08:48:06;;;;;;;8.68;2.40;;;16.70;99.90;;;;;;5055801;28;20024;-88
2021/08/29 08:50:36;;;;;;;8.63;2.50;;;16.70;99.90;;;;;;5073555;28;20070;-90
2021/08/29 08:53:04;;;;;;;6.63;2.20;;;16.70;99.90;;;;;;5074269;28;20111;-87
2021/08/29 08:55:37;;;;;;;6.25;1.90;;;16.60;99.90;;;;;;5056384;28;20056;-87
2021/08/29 08:58:07;;;;;;;7.45;2.10;;;16.60;99.90;;;;;;5056057;28;20027;-86
2021/08/29 09:00:37;;;;;;;6.10;2.15;;;16.60;99.90;;;;;;5055817;28;20123;-86
2021/08/29 09:03:09;;;;;;;8.00;2.90;;;16.60;99.90;;;;;;5073399;28;20041;-89
2021/08/29 09:05:41;;;;;;;7.47;2.72;;;16.60;99.90;;;;;;5055661;28;20024;-87
2021/08/29 09:08:07;;;;;;;7.07;2.38;;;16.60;99.90;;;;;;5055787;28;20074;-87
2021/08/29 09:10:34;;;;;;;7.45;2.45;;;16.50;99.90;;;;;;5073163;28;20046;-87
2021/08/29 09:13:06;;;;;;;7.53;2.30;;;16.50;99.90;;;;;;5074251;28;20105;-89
2021/08/29 09:15:34;;;;;;;7.15;2.60;;;16.50;99.90;;;;;;5023416;28;20040;-89
2021/08/29 09:18:01;;;;;;;6.50;2.63;;;16.50;99.90;;;;;;5054987;28;20016;-88
2021/08/29 09:20:36;;;;;;;8.43;2.80;;;16.50;99.90;;;;;;5072435;28;20036;-88
2021/08/29 09:23:13;;;;;;;8.82;2.53;;;16.50;99.90;;;;;;5055480;28;20033;-88
2021/08/29 09:25:43;;;;;;;8.63;2.40;;;16.40;99.90;;;;;;5054937;28;20078;-86
2021/08/29 09:28:12;;;;;;;6.32;2.10;;;16.40;99.90;;;;;;5051985;28;20067;-88
2021/08/29 09:30:46;;;;;;;6.28;2.65;;;16.50;99.90;;;;;;5054664;28;20487;-88
2021/08/29 09:33:13;;;;;;;7.03;2.35;;;16.50;99.90;;;;;;5037119;28;20041;-88
2021/08/29 09:35:40;;;;;;;6.95;2.13;;;16.60;99.90;;;;;;5054487;28;20074;-89
2021/08/29 09:38:19;;;;;;;9.45;2.58;;;16.60;99.90;;;;;;5073039;28;20023;-87
2021/08/29 09:40:45;;;;;;;4.15;1.70;;;16.60;99.90;;;;;;5054461;28;20101;-87
2021/08/29 09:43:14;;;;;;;7.57;2.03;;;16.60;99.90;;;;;;5055538;28;20257;-87
2021/08/29 09:45:48;;;;;;;7.55;2.40;;;16.60;99.90;;;;;;5055312;28;20111;-88
2021/08/29 09:48:18;;;;;;;7.65;2.55;;;16.60;99.90;;;;;;5055278;28;20047;-87
2021/08/29 09:50:46;;;;;;;5.97;2.17;;;16.60;99.90;;;;;;5054348;28;20081;-88
2021/08/29 09:53:16;;;;;;;5.72;1.92;;;16.70;99.90;;;;;;5056431;28;20028;-87
2021/08/29 09:55:44;;;;;;;8.43;2.53;;;16.80;99.90;;;;;;5055087;28;20028;-87
2021/08/29 09:58:25;;;;;;;7.75;2.65;;;16.80;99.90;;;;;;5054761;28;20137;-90
2021/08/29 10:01:19;;;;;;;5.72;2.28;;;16.90;99.90;;;;;;5054483;28;20074;-88
2021/08/29 10:03:46;;;;;;;7.43;2.00;;;16.80;99.90;;;;;;5071745;28;20060;-87
2021/08/29 10:06:17;;;;;;;7.32;2.13;;;16.90;99.90;;;;;;5071471;28;20043;-87
2021/08/29 10:08:53;;;;;;;7.60;2.30;;;16.90;99.90;;;;;;5054487;28;20024;-88
2021/08/29 10:11:21;;;;;;;6.10;2.50;;;16.90;99.90;;;;;;5054623;28;20032;-86
2021/08/29 10:13:48;;;;;;;7.38;2.35;;;16.80;99.90;;;;;;5054425;28;20028;-86
2021/08/29 10:16:16;;;;;;;5.32;1.90;;;16.70;99.90;;;;;;5054283;28;20052;-86
2021/08/29 10:18:47;;;;;;;6.53;2.00;;;16.70;99.90;;;;;;5054627;28;20056;-90
2021/08/29 10:21:15;;;;;;;5.65;2.15;;;16.70;99.90;;;;;;5054960;28;20025;-88
2021/08/29 10:23:43;;;;;;;5.35;1.83;;;16.70;99.90;;;;;;5055083;28;20779;-89
2021/08/29 10:26:11;;;;;;;6.18;1.58;;;16.80;99.90;;;;;;5072147;28;20159;-87
2021/08/29 10:28:45;;;;;;;6.85;1.92;;;16.90;99.90;;;;;;5054882;28;20377;-89
2021/08/29 10:31:15;;;;;;;4.55;1.70;;;16.90;99.90;;;;;;5034920;28;20067;-89
2021/08/29 10:33:49;;;;;;;6.25;1.98;;;17.00;99.90;;;;;;5050981;28;20040;-87
2021/08/29 10:36:20;;;;;;;6.90;1.73;;;17.00;99.90;;;;;;5050075;28;20516;-89
2021/08/29 10:38:47;;;;;;;7.00;2.15;;;17.00;99.90;;;;;;5071019;28;20380;-88
2021/08/29 10:41:20;;;;;;;3.33;1.50;;;17.00;99.90;;;;;;5051779;28;20033;-88
2021/08/29 10:43:46;;;;;;;5.37;2.00;;;17.00;99.90;;;;;;5052497;28;20029;-87
2021/08/29 10:46:14;;;;;;;5.07;1.67;;;17.00;99.90;;;;;;5052226;28;20033;-91
2021/08/29 10:48:45;;;;;;;4.20;1.73;;;17.10;99.90;;;;;;5051008;28;20032;-88
2021/08/29 10:51:14;;;;;;;5.38;2.05;;;17.10;99.90;;;;;;5049110;28;20071;-88
2021/08/29 10:53:49;;;;;;;5.55;1.92;;;17.20;99.90;;;;;;5050361;28;20481;-86
2021/08/29 10:56:18;;;;;;;6.47;2.08;;;17.20;99.90;;;;;;5050894;28;20028;-88
2021/08/29 10:58:48;;;;;;;5.90;2.15;;;17.20;99.90;;;;;;5050519;28;20037;-89
2021/08/29 11:01:50;;;;;;;4.68;1.67;;;17.10;99.90;;;;;;5050398;28;20028;-88
2021/08/29 11:04:19;;;;;;;4.05;1.75;;;17.20;99.90;;;;;;5039480;28;20041;-88
2021/08/29 11:06:53;;;;;;;5.40;1.95;;;17.20;99.90;;;;;;5050810;28;20384;-87
2021/08/29 11:09:35;;;;;;;6.60;1.92;;;17.30;99.90;;;;;;5048799;28;20098;-88
2021/08/29 11:12:27;;;;;;;4.38;1.70;;;17.30;99.90;;;;;;5082986;28;20036;-89
2021/08/29 11:14:58;;;;;;;3.28;1.58;;;17.30;99.90;;;;;;5050850;28;20112;-89
2021/08/29 11:17:25;;;;;;;5.68;1.88;;;17.30;99.90;;;;;;5082674;28;20040;-88
2021/08/29 11:20:08;;;;;;;3.65;1.45;;;17.40;99.90;;;;;;5049194;28;20626;-88
2021/08/29 11:22:47;;;;;;;;;;;17.40;99.90;;;;;;5047167;28;20043;-89
2021/08/29 11:25:14;;;;;;;3.20;1.20;;;17.40;99.90;;;;;;5047444;28;19915;-89
2021/08/29 11:27:55;;;;;;;3.92;1.63;;;17.40;99.90;;;;;;5048380;28;20097;-88
2021/08/29 11:30:40;;;;;;;1.92;1.02;;;17.40;99.90;;;;;;5064841;28;20017;-89
2021/08/29 11:33:08;;;;;;;3.50;1.10;;;17.50;99.90;;;;;;5023124;28;20037;-89
2021/08/29 11:35:37;;;;;;;3.17;1.45;;;17.50;99.90;;;;;;5026576;28;20028;-89
2021/08/29 11:38:18;;;;;;;2.75;1.48;;;17.50;99.90;;;;;;5059374;28;20017;-89
2021/08/29 11:41:06;;;;;;;3.22;1.30;;;17.60;99.90;;;;;;5028237;28;20065;-89
2021/08/29 11:43:35;;;;;;;2.22;1.17;;;17.60;99.90;;;;;;5027514;28;20041;-90
2021/08/29 11:46:15;;;;;;;3.42;1.20;;;17.60;99.90;;;;;;5030121;28;20033;-88
2021/08/29 11:48:53;;;;;;;3.17;1.40;;;17.60;99.90;;;;;;5029485;28;20026;-90
2021/08/29 11:51:23;;;;;;;3.80;1.58;;;17.50;99.90;;;;;;5029476;28;20025;-88
2021/08/29 11:53:49;;;;;;;2.83;1.33;;;17.60;99.90;;;;;;5030661;28;20026;-88
2021/08/29 11:56:19;;;;;;;3.10;1.90;;;17.60;99.90;;;;;;5029955;28;20030;-89
2021/08/29 11:58:50;;;;;;;2.53;1.42;;;17.60;99.90;;;;;;5029203;28;20517;-91
2021/08/29 12:01:17;;;;;;;2.00;1.20;;;17.60;99.90;;;;;;5026641;28;20070;-89
2021/08/29 12:03:43;;;;;;;2.55;1.30;;;17.60;99.90;;;;;;5029117;28;20037;-88
2021/08/29 12:06:48;;;;;;;3.55;1.55;;;17.60;99.90;;;;;;5029749;28;20026;-89
2021/08/29 12:09:31;;;;;;;4.22;1.80;;;17.60;99.90;;;;;;4953534;28;20057;-88
2021/08/29 12:11:59;;;;;;;3.83;1.92;;;17.60;99.90;;;;;;4990224;28;20516;-88
2021/08/29 12:14:30;;;;;;;4.13;1.65;;;17.70;99.90;;;;;;5014617;28;20034;-90
2021/08/29 12:20:04;;;;;;;2.55;1.55;;;18.10;99.90;;;;;;5136127;27;20457;-89
2021/08/29 12:22:35;;;;;;;2.97;1.50;;;18.30;99.90;;;;;;5095343;28;20709;-86
2021/08/29 12:25:01;;;;;;;3.47;1.50;;;18.40;99.90;;;;;;5079654;28;20405;-90
2021/08/29 12:27:27;;;;;;;2.40;1.55;;;18.40;99.90;;;;;;5086226;28;20556;-85
2021/08/29 12:29:54;;;;;;;3.60;1.70;;;18.40;99.90;;;;;;5081908;28;20029;-91
2021/08/29 12:32:24;;;;;;;3.38;1.80;;;18.30;99.90;;;;;;5093968;28;20020;-91
2021/08/29 12:34:57;;;;;;;4.43;1.75;;;18.30;99.90;;;;;;5075048;28;20036;-89
2021/08/29 12:37:24;;;;;;;3.95;1.80;;;18.30;99.90;;;;;;5096536;28;20031;-90
2021/08/29 12:40:07;;;;;;;4.03;2.00;;;18.40;99.90;;;;;;5096583;28;20091;-92
2021/08/29 12:45:03;;;;;;;4.05;2.03;;;18.50;99.90;;;;;;5055589;22;20057;-86
2021/08/29 12:47:30;;;;;;;5.35;1.90;;;18.60;99.90;;;;;;5053403;28;20458;-86
2021/08/29 12:49:58;;;;;;;5.60;2.20;;;18.60;99.90;;;;;;5051372;28;20040;-87
2021/08/29 12:52:56;;;;;;;3.22;1.80;;;18.60;99.90;;;;;;5045569;28;20420;-86
2021/08/29 12:55:25;;;;;;;5.38;2.20;;;18.60;99.90;;;;;;5047548;28;20553;-87
2021/08/29 12:58:00;;;;;;;3.30;2.03;;;18.60;99.90;;;;;;5035006;28;20099;-88
2021/08/29 13:00:38;;;;;;;5.20;2.33;;;18.50;99.90;;;;;;5046117;28;20021;-88